Time;durP1;ratioP1;P1;durP2;ratioP2;P2;SDS_P1;SDS_P2;PMS_P1;PMS_P2;Temp;Humidity;BMP_temperature;BMP_pressure;BME280_temperature;BME280_humidity;BME280_pressure;Samples;Min_cycle;Max_cycle;Signal;HPM_P1;HPM_P2
2020/12/14 00:01:26;;;;;;;27.25;14.87;;;;;;;0.63;99.09;99040.44;1710351;84;21196;-60
2020/12/14 00:03:53;;;;;;;26.68;14.28;;;;;;;0.63;99.13;99035.36;1676122;84;21192;-60
2020/12/14 00:06:22;;;;;;;22.05;14.85;;;;;;;0.58;99.18;99044.41;1671748;86;21200;-60
2020/12/14 00:08:49;;;;;;;24.43;15.32;;;;;;;0.62;99.26;99042.92;1671647;86;21117;-59
2020/12/14 00:11:17;;;;;;;23.95;14.47;;;;;;;0.59;99.07;99051.25;1671832;86;21686;-60
2020/12/14 00:13:47;;;;;;;24.43;14.55;;;;;;;0.57;99.30;99052.83;1671758;86;21094;-59
2020/12/14 00:16:15;;;;;;;25.25;13.78;;;;;;;0.57;99.24;99049.02;1671668;86;21077;-60
2020/12/14 00:18:42;;;;;;;21.07;13.72;;;;;;;0.63;99.37;99049.33;1671934;86;21082;-60
2020/12/14 00:21:10;;;;;;;24.00;14.63;;;;;;;0.70;99.38;99040.77;1672012;86;21500;-60
2020/12/14 00:23:37;;;;;;;21.10;12.78;;;;;;;0.71;98.94;99040.83;1671898;85;21524;-60
2020/12/14 00:26:06;;;;;;;18.85;12.45;;;;;;;0.68;98.83;99043.22;1671686;86;21062;-60
2020/12/14 00:28:33;;;;;;;18.65;12.70;;;;;;;0.64;98.92;99035.86;1671804;86;21200;-59
2020/12/14 00:31:01;;;;;;;23.07;13.30;;;;;;;0.67;98.99;99046.97;1671982;86;21046;-60
2020/12/14 00:33:29;;;;;;;19.65;13.62;;;;;;;0.70;98.99;99050.52;1671769;85;21200;-60
2020/12/14 00:35:57;;;;;;;22.52;13.28;;;;;;;0.69;98.75;99060.59;1671637;86;21157;-60
2020/12/14 00:38:24;;;;;;;19.02;12.35;;;;;;;0.68;98.82;99048.70;1671687;86;21201;-60
2020/12/14 00:40:52;;;;;;;19.73;12.93;;;;;;;0.65;98.75;99055.77;1671662;86;21208;-60
2020/12/14 00:43:20;;;;;;;22.17;13.88;;;;;;;0.65;98.79;99056.63;1671897;86;21204;-60
2020/12/14 00:45:48;;;;;;;21.82;14.03;;;;;;;0.60;98.73;99047.91;1671765;86;21106;-58
2020/12/14 00:48:15;;;;;;;20.85;13.25;;;;;;;0.58;98.83;99048.62;1671757;86;21066;-60
2020/12/14 00:50:43;;;;;;;17.32;11.40;;;;;;;0.59;99.01;99043.63;1671673;86;21197;-60
2020/12/14 00:53:10;;;;;;;18.95;12.35;;;;;;;0.59;99.02;99052.92;1671621;86;21110;-61
2020/12/14 00:55:39;;;;;;;22.20;14.07;;;;;;;0.62;99.16;99052.67;1671777;85;21504;-60
2020/12/14 00:58:07;;;;;;;39.95;21.40;;;;;;;0.65;99.10;99046.47;1671683;86;21070;-59
2020/12/14 01:00:35;;;;;;;25.25;14.68;;;;;;;0.65;99.01;99050.28;1671690;86;21082;-59
2020/12/14 01:03:02;;;;;;;23.92;14.43;;;;;;;0.66;99.01;99047.34;1671835;84;21113;-60
2020/12/14 01:05:30;;;;;;;25.12;14.43;;;;;;;0.63;99.07;99047.19;1671639;86;21316;-59
2020/12/14 01:07:58;;;;;;;24.45;15.55;;;;;;;0.62;99.22;99045.45;1671638;86;21204;-59
2020/12/14 01:10:25;;;;;;;25.08;15.43;;;;;;;0.59;99.32;99047.44;1671768;86;21103;-60
2020/12/14 01:13:02;;;;;;;24.87;15.60;;;;;;;0.58;99.50;99046.95;1672002;85;21535;-61
2020/12/14 01:15:29;;;;;;;21.65;13.85;;;;;;;0.56;99.58;99046.02;1671624;86;21030;-60
2020/12/14 01:17:57;;;;;;;22.37;12.37;;;;;;;0.56;99.57;99044.75;1671657;86;21258;-61
2020/12/14 01:20:24;;;;;;;21.85;13.98;;;;;;;0.52;99.77;99042.83;1671763;86;21038;-59
2020/12/14 01:22:52;;;;;;;26.87;16.10;;;;;;;0.49;99.81;99046.48;1671928;86;21042;-58
2020/12/14 01:25:20;;;;;;;24.40;14.68;;;;;;;0.48;99.99;99040.92;1671732;86;21058;-59
2020/12/14 01:27:47;;;;;;;19.70;13.08;;;;;;;0.53;100.00;99046.23;1671646;86;21213;-60
2020/12/14 01:30:15;;;;;;;21.52;13.10;;;;;;;0.51;99.85;99039.83;1671947;86;21457;-60
2020/12/14 01:32:42;;;;;;;24.70;15.75;;;;;;;0.54;99.95;99043.80;1671916;86;21220;-59
2020/12/14 01:35:10;;;;;;;22.58;14.85;;;;;;;0.50;99.94;99027.91;1671833;85;21184;-59
2020/12/14 01:37:38;;;;;;;26.23;15.32;;;;;;;0.47;99.96;99036.65;1671656;86;21074;-60
2020/12/14 01:40:06;;;;;;;21.93;13.98;;;;;;;0.48;100.00;99037.11;1671700;86;21090;-60
2020/12/14 01:45:20;;;;;;;26.02;15.80;;;;;;;0.52;100.00;99030.14;1853515;77;22164;-59
2020/12/14 01:47:50;;;;;;;26.57;14.53;;;;;;;0.45;99.97;99035.69;1758815;81;21154;-60
2020/12/14 01:50:18;;;;;;;20.37;12.70;;;;;;;0.45;100.00;99031.02;1789861;80;21126;-59
2020/12/14 01:52:47;;;;;;;19.32;12.18;;;;;;;0.48;100.00;99033.70;1758774;81;21182;-61
2020/12/14 01:55:40;;;;;;;22.50;14.10;;;;;;;0.51;100.00;99032.59;1758730;81;21134;-60
2020/12/14 01:58:10;;;;;;;25.12;12.88;;;;;;;0.51;99.88;99038.94;1714844;84;21163;-59
2020/12/14 02:00:37;;;;;;;21.85;12.88;;;;;;;0.51;99.85;99039.83;1725814;83;21334;-59
2020/12/14 02:03:06;;;;;;;22.45;13.75;;;;;;;0.54;99.81;99036.58;1742322;82;21307;-60
2020/12/14 02:05:33;;;;;;;25.60;14.05;;;;;;;0.55;99.73;99039.17;1744556;82;21164;-59
2020/12/14 02:08:05;;;;;;;22.40;14.15;;;;;;;0.56;99.79;99033.33;1744466;81;21168;-59
2020/12/14 02:10:32;;;;;;;19.60;13.53;;;;;;;0.55;99.60;99036.64;1744396;81;21152;-59
2020/12/14 02:13:00;;;;;;;18.20;11.08;;;;;;;0.57;99.65;99032.92;1744456;82;21277;-60
2020/12/14 02:15:28;;;;;;;18.40;11.08;;;;;;;0.54;99.47;99045.47;1744373;82;21159;-59
2020/12/14 02:17:56;;;;;;;16.95;10.25;;;;;;;0.56;99.59;99038.77;1744492;81;21314;-60
2020/12/14 02:20:24;;;;;;;18.00;11.43;;;;;;;0.56;99.46;99048.56;1744359;81;21183;-61
2020/12/14 02:22:51;;;;;;;22.02;12.85;;;;;;;0.52;99.37;99041.56;1744599;82;21287;-60
2020/12/14 02:25:19;;;;;;;19.20;12.13;;;;;;;0.52;99.55;99039.03;1744366;82;21163;-60
2020/12/14 02:27:47;;;;;;;16.42;11.38;;;;;;;0.55;99.51;99051.88;1744827;82;21534;-60
2020/12/14 02:30:15;;;;;;;19.12;11.90;;;;;;;0.54;99.53;99039.98;1744353;82;21156;-59
2020/12/14 02:32:43;;;;;;;23.67;14.68;;;;;;;0.57;99.57;99047.75;1744345;81;21151;-59
2020/12/14 02:35:11;;;;;;;20.37;13.60;;;;;;;0.61;99.66;99040.78;1744514;82;21650;-60
2020/12/14 02:37:39;;;;;;;18.17;11.90;;;;;;;0.64;99.59;99043.47;1744427;82;21175;-60
2020/12/14 02:40:06;;;;;;;19.52;11.70;;;;;;;0.65;99.42;99049.02;1744342;82;21152;-60
2020/12/14 02:42:34;;;;;;;19.73;12.58;;;;;;;0.63;99.42;99044.24;1744442;81;21262;-60
2020/12/14 02:45:03;;;;;;;22.17;13.98;;;;;;;0.62;99.45;99045.05;1744309;82;21202;-60
2020/12/14 02:47:30;;;;;;;19.57;13.50;;;;;;;0.65;99.53;99040.13;1744344;82;21164;-59
2020/12/14 02:49:59;;;;;;;23.20;14.83;;;;;;;0.65;99.38;99041.39;1744625;82;21148;-60
2020/12/14 02:52:26;;;;;;;19.87;12.30;;;;;;;0.65;99.33;99036.31;1744548;82;21179;-60
2020/12/14 02:54:54;;;;;;;20.27;13.60;;;;;;;0.65;99.28;99043.94;1744191;82;21225;-60
2020/12/14 02:57:21;;;;;;;22.87;14.47;;;;;;;0.61;99.26;99044.96;1731356;82;21294;-60
2020/12/14 02:59:50;;;;;;;22.35;14.23;;;;;;;0.59;99.18;99037.28;1724383;83;21169;-60
2020/12/14 03:02:18;;;;;;;20.48;13.75;;;;;;;0.59;99.21;99035.15;1724471;83;21169;-59
2020/12/14 03:04:46;;;;;;;17.98;11.95;;;;;;;0.58;99.31;99041.00;1724592;83;21288;-59
2020/12/14 03:07:14;;;;;;;22.35;13.75;;;;;;;0.58;99.40;99029.17;1724688;83;21220;-58
2020/12/14 03:09:42;;;;;;;23.73;14.70;;;;;;;0.59;99.42;99033.48;1724427;83;21145;-59
2020/12/14 03:12:11;;;;;;;24.57;15.03;;;;;;;0.58;99.22;99039.33;1724255;83;21169;-60
2020/12/14 03:14:39;;;;;;;24.30;14.05;;;;;;;0.60;99.42;99032.67;1724349;83;21157;-59
2020/12/14 03:17:06;;;;;;;21.25;13.83;;;;;;;0.71;99.62;99040.83;1724273;83;21161;-59
2020/12/14 03:19:35;;;;;;;18.87;12.50;;;;;;;0.73;99.28;99035.84;1724555;83;21293;-59
2020/12/14 03:22:03;;;;;;;19.92;12.10;;;;;;;0.77;99.39;99036.48;1724458;83;21286;-59
2020/12/14 03:24:30;;;;;;;18.87;12.55;;;;;;;0.77;99.15;99037.75;1724159;83;21136;-59
2020/12/14 03:26:58;;;;;;;22.93;14.07;;;;;;;0.78;99.11;99038.21;1724522;83;21188;-59
2020/12/14 03:29:25;;;;;;;19.95;12.28;;;;;;;0.73;98.69;99036.70;1724281;83;21287;-59
2020/12/14 03:31:53;;;;;;;21.75;12.70;;;;;;;0.72;98.78;99034.97;1724513;83;21160;-59
2020/12/14 03:34:21;;;;;;;22.20;14.05;;;;;;;0.69;98.61;99031.38;1724268;83;21149;-58
2020/12/14 03:36:48;;;;;;;22.35;13.20;;;;;;;0.71;98.73;99042.50;1724372;83;21306;-59
2020/12/14 03:39:17;;;;;;;20.52;12.20;;;;;;;0.72;98.62;99032.84;1724324;83;21264;-60
2020/12/14 03:41:45;;;;;;;20.10;11.88;;;;;;;0.71;98.45;99043.37;1724210;83;21165;-58
2020/12/14 03:44:12;;;;;;;20.57;12.55;;;;;;;0.70;98.43;99038.23;1724426;83;21141;-59
2020/12/14 03:46:40;;;;;;;21.80;13.32;;;;;;;0.69;98.35;99039.00;1724312;83;21292;-59
2020/12/14 03:49:09;;;;;;;18.85;11.95;;;;;;;0.68;98.32;99038.55;1724199;83;21287;-60
2020/12/14 03:51:37;;;;;;;17.15;11.03;;;;;;;0.65;98.12;99036.72;1724198;83;21160;-61
2020/12/14 03:54:05;;;;;;;20.68;12.78;;;;;;;0.58;98.24;99044.41;1724199;83;21141;-59
2020/12/14 03:56:32;;;;;;;22.95;13.68;;;;;;;0.54;98.29;99042.52;1724407;83;21152;-61
2020/12/14 03:59:00;;;;;;;23.15;13.85;;;;;;;0.55;98.52;99044.25;1724165;83;21312;-59
2020/12/14 04:01:31;;;;;;;20.25;12.35;;;;;;;0.57;98.55;99049.42;1724415;83;21165;-59
2020/12/14 04:03:59;;;;;;;20.00;12.13;;;;;;;0.50;98.50;99050.77;1724379;83;21194;-59
2020/12/14 04:06:27;;;;;;;20.23;12.00;;;;;;;0.48;98.78;99052.75;1724261;83;21290;-59
2020/12/14 04:08:55;;;;;;;20.15;12.33;;;;;;;0.49;99.04;99043.09;1724184;83;21141;-60
2020/12/14 04:11:22;;;;;;;22.87;13.90;;;;;;;0.51;99.06;99044.01;1724366;83;21295;-59
2020/12/14 04:13:51;;;;;;;21.23;12.73;;;;;;;0.53;99.05;99044.97;1724523;83;21165;-60
2020/12/14 04:16:19;;;;;;;19.65;12.85;;;;;;;0.52;98.99;99045.38;1724386;83;21172;-59
2020/12/14 04:18:49;;;;;;;19.67;10.80;;;;;;;0.50;98.94;99054.57;1724170;83;21583;-59
2020/12/14 04:21:18;;;;;;;19.27;10.82;;;;;;;0.52;98.86;99052.99;1724396;83;21144;-59
2020/12/14 04:23:46;;;;;;;21.25;12.50;;;;;;;0.55;98.76;99060.77;1724352;83;21304;-60
2020/12/14 04:26:15;;;;;;;18.42;11.60;;;;;;;0.55;98.69;99056.95;1724278;83;21168;-60
2020/12/14 04:28:42;;;;;;;17.73;9.65;;;;;;;0.54;98.57;99065.38;1724255;83;21271;-60
2020/12/14 04:31:10;;;;;;;15.45;9.98;;;;;;;0.54;98.63;99059.03;1724179;83;21149;-61
2020/12/14 04:33:41;;;;;;;18.25;10.68;;;;;;;0.56;98.75;99065.06;1724188;83;21330;-61
2020/12/14 04:36:12;;;;;;;17.87;10.50;;;;;;;0.57;98.80;99065.53;1724438;83;21121;-61
2020/12/14 04:38:40;;;;;;;17.50;10.88;;;;;;;0.56;98.58;99058.72;1724499;83;21149;-60
2020/12/14 04:41:08;;;;;;;16.37;10.53;;;;;;;0.52;98.68;99071.17;1724116;83;21749;-61
2020/12/14 04:43:36;;;;;;;16.00;11.80;;;;;;;0.54;98.77;99065.78;1724436;83;21114;-61
2020/12/14 04:46:05;;;;;;;16.97;10.63;;;;;;;0.55;98.83;99064.56;1724434;83;21603;-61
2020/12/14 04:48:33;;;;;;;17.55;11.33;;;;;;;0.58;98.90;99069.80;1724181;83;21279;-60
2020/12/14 04:51:01;;;;;;;18.37;10.48;;;;;;;0.56;98.50;99070.14;1713917;82;21205;-61
2020/12/14 04:53:29;;;;;;;16.90;10.95;;;;;;;0.55;98.43;99075.12;1707454;84;21292;-61
2020/12/14 04:55:58;;;;;;;15.93;10.75;;;;;;;0.54;98.48;99069.59;1707085;83;21360;-61
2020/12/14 04:58:26;;;;;;;19.65;12.90;;;;;;;0.58;98.69;99073.61;1720815;83;21294;-61
2020/12/14 05:00:53;;;;;;;20.05;13.00;;;;;;;0.63;98.50;99074.72;1733936;82;21158;-60
2020/12/14 05:03:21;;;;;;;26.57;15.00;;;;;;;0.64;98.46;99076.48;1732307;82;21136;-60
2020/12/14 05:05:56;;;;;;;21.15;13.60;;;;;;;0.68;98.40;99077.91;1748096;81;21314;-60
2020/12/14 05:08:25;;;;;;;21.07;12.82;;;;;;;0.68;98.44;99080.05;1735476;82;21112;-60
2020/12/14 05:10:54;;;;;;;24.75;14.05;;;;;;;0.70;98.35;99085.22;1743079;81;21165;-61
2020/12/14 05:13:29;;;;;;;25.27;14.07;;;;;;;0.68;98.18;99088.94;1746525;81;21304;-61
2020/12/14 05:15:57;;;;;;;19.48;12.53;;;;;;;0.61;98.10;99091.57;1735645;82;21180;-60
2020/12/14 05:18:26;;;;;;;21.27;12.95;;;;;;;0.57;98.37;99096.00;1740478;82;21289;-61
2020/12/14 05:21:05;;;;;;;22.32;13.78;;;;;;;0.59;98.62;99099.50;1743120;81;21320;-60
2020/12/14 05:23:33;;;;;;;23.05;14.05;;;;;;;0.63;98.68;99097.58;1722747;82;21644;-60
2020/12/14 05:26:08;;;;;;;23.42;15.18;;;;;;;0.70;98.70;99102.99;1675969;82;21696;-59
2020/12/14 05:28:36;;;;;;;22.67;14.18;;;;;;;0.74;98.58;99102.34;1751101;82;21124;-60
2020/12/14 05:31:04;;;;;;;20.20;13.20;;;;;;;0.75;98.30;99104.11;1735708;82;21279;-60
2020/12/14 05:33:32;;;;;;;15.45;10.93;;;;;;;0.77;98.37;99100.85;1735729;83;21184;-60
2020/12/14 05:36:00;;;;;;;16.17;10.10;;;;;;;0.78;97.90;99103.86;1735521;83;21382;-60
2020/12/14 05:38:31;;;;;;;16.07;10.50;;;;;;;0.82;97.83;99111.25;1735843;83;21424;-60
2020/12/14 05:41:03;;;;;;;17.52;11.65;;;;;;;0.85;97.29;99108.87;1735810;83;21555;-61
2020/12/14 05:43:34;;;;;;;;;;;;;;;0.81;97.05;99109.08;1743354;81;21143;-60
2020/12/14 05:46:15;;;;;;;16.05;9.50;;;;;;;0.77;97.03;99113.95;1735787;82;20215;-61
2020/12/14 05:48:43;;;;;;;16.05;10.55;;;;;;;0.73;96.91;99117.11;1735464;82;21161;-62
2020/12/14 05:51:12;;;;;;;17.30;11.15;;;;;;;0.69;97.16;99117.73;1744771;82;21629;-61
2020/12/14 05:53:49;;;;;;;17.82;11.65;;;;;;;0.74;97.35;99126.47;1744584;81;21135;-61
2020/12/14 05:56:18;;;;;;;17.77;11.40;;;;;;;0.77;97.05;99130.47;1735442;82;21121;-60
2020/12/14 05:58:52;;;;;;;17.87;11.45;;;;;;;0.82;97.07;99134.12;1726093;82;21313;-59
2020/12/14 06:01:22;;;;;;;30.85;17.62;;;;;;;0.83;97.19;99137.13;1724073;83;21165;-60
2020/12/14 06:03:52;;;;;;;20.68;14.05;;;;;;;0.83;96.94;99144.34;1723835;83;21173;-59
2020/12/14 06:06:21;;;;;;;28.05;15.13;;;;;;;0.81;96.84;99145.05;1701813;83;21182;-60
2020/12/14 06:09:06;;;;;;;22.07;13.35;;;;;;;0.79;96.82;99144.09;1681658;84;21179;-59
2020/12/14 06:11:36;;;;;;;20.57;13.15;;;;;;;0.77;96.71;99149.52;1723982;83;21179;-60
2020/12/14 06:14:05;;;;;;;21.25;14.10;;;;;;;0.77;96.75;99159.67;1716822;83;21298;-60
2020/12/14 06:16:35;;;;;;;20.75;13.95;;;;;;;0.79;96.87;99159.33;1717777;83;21322;-60
2020/12/14 06:19:04;;;;;;;21.60;13.68;;;;;;;0.78;96.57;99161.01;1717025;83;21290;-60
2020/12/14 06:21:49;;;;;;;22.75;13.62;;;;;;;0.75;96.53;99162.53;1724082;83;21297;-60
2020/12/14 06:24:23;;;;;;;23.00;13.68;;;;;;;0.71;96.71;99169.49;1720176;83;21163;-60
2020/12/14 06:26:51;;;;;;;26.17;15.50;;;;;;;0.69;96.86;99165.99;1723916;82;21605;-60
2020/12/14 06:29:37;;;;;;;24.20;16.67;;;;;;;0.75;96.98;99167.61;1717124;83;21338;-60
2020/12/14 06:32:38;;;;;;;26.37;17.10;;;;;;;0.76;96.94;99165.13;1716259;83;21286;-59
2020/12/14 06:35:15;;;;;;;27.22;16.02;;;;;;;0.81;96.85;99169.19;1721411;83;21301;-60
2020/12/14 06:37:50;;;;;;;25.15;15.50;;;;;;;0.77;96.72;99164.75;1721206;83;21321;-61
2020/12/14 06:40:19;;;;;;;31.05;18.02;;;;;;;0.79;97.03;99158.06;1721493;83;21147;-61
2020/12/14 06:42:49;;;;;;;29.25;18.05;;;;;;;0.79;96.84;99147.91;1716592;83;21582;-60
2020/12/14 06:45:18;;;;;;;32.15;18.90;;;;;;;0.74;96.84;99150.59;1723924;82;21290;-61
2020/12/14 06:47:51;;;;;;;26.90;17.25;;;;;;;0.73;96.99;99141.24;1720226;83;21191;-61
2020/12/14 06:50:32;;;;;;;24.90;16.45;;;;;;;0.81;97.12;99145.05;1831026;77;22167;-61
2020/12/14 06:53:01;;;;;;;32.23;19.95;;;;;;;0.80;97.04;99150.94;1787833;80;21154;-59
2020/12/14 06:55:44;;;;;;;34.23;20.97;;;;;;;0.80;96.99;99160.70;1774099;80;21144;-60
2020/12/14 06:58:32;;;;;;;31.07;20.43;;;;;;;0.84;96.94;99151.55;1774334;80;21271;-60
2020/12/14 07:01:01;;;;;;;30.82;19.48;;;;;;;0.79;96.99;99158.06;1776928;80;21288;-60
2020/12/14 07:03:36;;;;;;;33.05;19.67;;;;;;;0.81;97.28;99149.73;1718511;83;21201;-61
2020/12/14 07:06:06;;;;;;;32.15;19.48;;;;;;;0.87;97.19;99156.83;1719062;82;21146;-61
2020/12/14 07:08:38;;;;;;;28.12;18.23;;;;;;;0.91;97.13;99150.22;1729752;83;21357;-61
2020/12/14 07:11:12;;;;;;;35.05;21.12;;;;;;;1.04;97.21;99154.77;1721009;82;21551;-62
2020/12/14 07:13:40;;;;;;;35.80;20.65;;;;;;;0.99;96.45;99152.38;1732463;82;21189;-64
2020/12/14 07:16:10;;;;;;;34.60;20.43;;;;;;;1.03;96.69;99159.76;1739641;82;21372;-61
2020/12/14 07:18:41;;;;;;;31.02;19.55;;;;;;;1.07;96.16;99151.11;1743825;82;21186;-61
2020/12/14 07:21:15;;;;;;;37.10;20.80;;;;;;;1.13;96.20;99158.16;1738618;82;21159;-61
2020/12/14 07:23:47;;;;;;;36.53;22.48;;;;;;;1.07;95.60;99168.89;1726043;83;21596;-61
2020/12/14 07:26:16;;;;;;;36.88;21.77;;;;;;;1.04;95.73;99171.28;1726450;82;21219;-61
2020/12/14 07:28:51;;;;;;;31.50;19.77;;;;;;;0.97;95.83;99175.56;1738999;82;21165;-62
2020/12/14 07:31:24;;;;;;;33.35;19.95;;;;;;;0.93;95.96;99186.34;1728217;82;21742;-61
2020/12/14 07:33:57;;;;;;;33.08;20.48;;;;;;;0.96;96.14;99176.74;1726704;83;21170;-62
2020/12/14 07:36:28;;;;;;;36.77;21.20;;;;;;;0.98;96.01;99186.19;1743667;81;21149;-61
2020/12/14 07:38:57;;;;;;;32.58;20.37;;;;;;;0.94;95.96;99189.39;1702478;83;21678;-61
2020/12/14 07:41:27;;;;;;;35.85;21.62;;;;;;;0.94;96.09;99193.57;1719766;83;21189;-61
2020/12/14 07:43:57;;;;;;;41.25;23.05;;;;;;;0.89;96.20;99198.44;1696005;83;21141;-60
2020/12/14 07:46:33;;;;;;;45.05;26.85;;;;;;;0.97;96.44;99200.11;1727539;82;21151;-61
2020/12/14 07:49:15;;;;;;;43.42;25.97;;;;;;;1.00;96.10;99197.31;1716214;83;21238;-61
2020/12/14 07:52:02;;;;;;;39.98;23.00;;;;;;;0.96;96.08;99190.31;1726422;82;21576;-59
2020/12/14 07:54:29;;;;;;;41.70;24.75;;;;;;;1.00;96.44;99196.05;1725625;83;21291;-61
2020/12/14 07:57:00;;;;;;;39.53;23.65;;;;;;;1.05;96.44;99186.99;1725282;83;21292;-61
2020/12/14 07:59:30;;;;;;;41.90;25.75;;;;;;;1.16;96.41;99201.92;1725375;83;21148;-61
2020/12/14 08:01:57;;;;;;;45.60;26.23;;;;;;;1.21;96.23;99203.03;1724630;83;21292;-62
2020/12/14 08:04:34;;;;;;;44.63;25.27;;;;;;;1.25;96.16;99203.69;1724943;83;21146;-60
2020/12/14 08:07:02;;;;;;;41.40;24.05;;;;;;;1.27;95.81;99211.86;1724954;83;21192;-60
2020/12/14 08:09:55;;;;;;;43.35;24.12;;;;;;;1.19;95.50;99208.44;1724915;83;21300;-61
2020/12/14 08:12:23;;;;;;;42.78;25.20;;;;;;;1.14;95.73;99212.41;1693372;83;21139;-60
2020/12/14 08:14:50;;;;;;;35.85;21.87;;;;;;;1.20;95.83;99205.12;1691886;83;21164;-58
2020/12/14 08:17:18;;;;;;;50.70;27.00;;;;;;;1.25;95.61;99207.50;1692030;85;21168;-60
2020/12/14 08:19:47;;;;;;;38.80;24.02;;;;;;;1.25;95.24;99207.50;1692529;83;21297;-61
2020/12/14 08:22:15;;;;;;;40.80;24.47;;;;;;;1.26;95.42;99202.88;1699655;83;21706;-60
2020/12/14 08:24:43;;;;;;;41.85;23.85;;;;;;;1.26;95.44;99206.28;1722253;83;21307;-60
2020/12/14 08:27:16;;;;;;;41.88;25.15;;;;;;;1.28;95.46;99206.38;1722202;83;21572;-60
2020/12/14 08:30:08;;;;;;;44.53;27.50;;;;;;;1.31;95.29;99209.07;1722204;82;21279;-62
2020/12/14 08:32:37;;;;;;;42.17;25.08;;;;;;;1.35;95.26;99206.27;1647485;85;21333;-62
2020/12/14 08:35:25;;;;;;;47.45;27.90;;;;;;;1.35;95.21;99208.81;1721894;83;21300;-62
2020/12/14 08:37:58;;;;;;;45.75;26.97;;;;;;;1.42;95.57;99201.98;1722239;82;21177;-61
2020/12/14 08:40:26;;;;;;;46.08;25.62;;;;;;;1.61;96.10;99192.36;1709092;82;21286;-60
2020/12/14 08:42:53;;;;;;;47.08;27.13;;;;;;;1.83;96.38;99191.36;1707187;83;21275;-61
2020/12/14 08:45:22;;;;;;;42.75;24.32;;;;;;;2.05;96.36;99193.25;1722018;82;21287;-61
2020/12/14 08:47:50;;;;;;;44.08;27.40;;;;;;;1.99;94.69;99189.15;1695787;83;21593;-60
2020/12/14 08:50:18;;;;;;;34.35;22.13;;;;;;;1.79;94.20;99185.63;1693398;83;21144;-60
2020/12/14 08:52:59;;;;;;;41.10;25.27;;;;;;;1.64;94.28;99181.92;1693460;83;21187;-59
2020/12/14 08:55:38;;;;;;;36.60;22.52;;;;;;;1.55;94.31;99181.86;1692524;83;21196;-60
2020/12/14 08:58:06;;;;;;;40.20;25.92;;;;;;;1.48;94.38;99180.30;1691712;85;21175;-62
2020/12/14 09:00:34;;;;;;;37.85;24.60;;;;;;;1.44;94.59;99174.56;1691776;85;21321;-60
2020/12/14 09:03:03;;;;;;;39.10;24.95;;;;;;;1.50;94.94;99168.53;1691925;84;21368;-60
2020/12/14 09:05:34;;;;;;;40.23;24.37;;;;;;;1.54;94.83;99163.59;1691872;85;21171;-60
2020/12/14 09:08:12;;;;;;;46.67;27.33;;;;;;;1.57;95.03;99162.06;1692076;85;21378;-60
2020/12/14 09:10:41;;;;;;;35.00;22.82;;;;;;;1.71;95.21;99155.13;1715495;83;21186;-60
2020/12/14 09:13:08;;;;;;;37.63;22.98;;;;;;;1.81;94.64;99156.45;1716964;82;21295;-60
2020/12/14 09:15:42;;;;;;;43.13;23.95;;;;;;;1.71;93.72;99158.95;1717172;82;21202;-59
2020/12/14 09:18:10;;;;;;;45.28;27.45;;;;;;;1.50;93.88;99151.11;1714556;83;21312;-60
2020/12/14 09:20:44;;;;;;;51.35;28.07;;;;;;;1.32;94.26;99147.65;1717034;82;21166;-61
2020/12/14 09:23:19;;;;;;;53.05;29.70;;;;;;;1.28;94.80;99156.40;1698366;83;21171;-62
2020/12/14 09:25:47;;;;;;;54.48;30.37;;;;;;;1.34;95.37;99153.69;1686776;83;21550;-60
2020/12/14 09:28:14;;;;;;;57.78;31.25;;;;;;;1.49;95.46;99152.78;1688305;83;21500;-61
2020/12/14 09:30:42;;;;;;;50.63;30.15;;;;;;;1.65;95.38;99152.27;1678201;83;21336;-61
2020/12/14 09:33:10;;;;;;;52.17;31.77;;;;;;;1.81;95.12;99150.09;1678160;83;21753;-60
2020/12/14 09:35:38;;;;;;;61.73;34.65;;;;;;;1.95;94.73;99163.06;1683674;83;21175;-60
2020/12/14 09:38:05;;;;;;;57.95;31.80;;;;;;;2.04;94.26;99162.24;1682434;84;21331;-59
2020/12/14 09:40:33;;;;;;;61.28;34.15;;;;;;;2.11;93.99;99172.30;1678182;84;21416;-60
2020/12/14 09:43:01;;;;;;;56.10;32.00;;;;;;;2.14;93.84;99178.83;1688010;84;21194;-61
2020/12/14 09:45:28;;;;;;;58.05;33.83;;;;;;;2.20;93.96;99179.11;1687692;83;21179;-60
2020/12/14 09:47:56;;;;;;;55.30;34.15;;;;;;;2.33;94.03;99192.89;1688386;83;21152;-59
2020/12/14 09:50:23;;;;;;;64.30;36.50;;;;;;;2.29;93.44;99186.30;1687192;84;21296;-60
2020/12/14 09:52:51;;;;;;;62.27;35.70;;;;;;;2.33;93.60;99188.20;1687091;85;21294;-60
2020/12/14 09:55:20;;;;;;;57.40;34.05;;;;;;;2.35;93.03;99193.84;1686620;85;21773;-60
2020/12/14 09:57:48;;;;;;;59.65;34.80;;;;;;;2.32;92.82;99200.48;1686765;85;21291;-60
2020/12/14 10:00:16;;;;;;;65.05;35.83;;;;;;;2.38;93.35;99196.93;1687081;85;21163;-61
2020/12/14 10:02:45;;;;;;;61.92;35.90;;;;;;;2.49;93.48;99197.42;1685109;85;21578;-60
2020/12/14 10:05:13;;;;;;;63.30;35.60;;;;;;;2.59;93.59;99192.82;1687856;83;21179;-60
2020/12/14 10:07:42;;;;;;;56.25;35.00;;;;;;;2.68;93.28;99188.56;1688487;83;21168;-60
2020/12/14 10:10:10;;;;;;;63.05;36.10;;;;;;;2.74;92.68;99194.34;1688311;83;21378;-61
2020/12/14 10:12:40;;;;;;;63.25;37.20;;;;;;;2.75;92.32;99192.28;1654386;85;21184;-61
2020/12/14 10:15:09;;;;;;;64.15;36.98;;;;;;;2.74;91.83;99184.14;1641742;86;21204;-62
2020/12/14 10:17:37;;;;;;;67.25;36.70;;;;;;;2.71;91.58;99186.56;1639897;86;21188;-59
2020/12/14 10:20:05;;;;;;;68.40;37.80;;;;;;;2.70;91.66;99194.61;1640219;86;21370;-62
2020/12/14 10:22:38;;;;;;;69.12;39.67;;;;;;;2.72;92.07;99194.28;1639966;86;21335;-62
2020/12/14 10:25:03;;;;;;;65.87;38.73;;;;;;;2.82;92.60;99193.90;1638993;86;21654;-60
2020/12/14 10:27:31;;;;;;;64.50;39.08;;;;;;;2.97;92.76;99201.75;1639954;86;21192;-61
2020/12/14 10:29:58;;;;;;;81.22;43.70;;;;;;;3.07;92.48;99187.33;1640039;86;21201;-63
2020/12/14 10:32:26;;;;;;;70.42;40.45;;;;;;;3.08;91.65;99188.19;1640020;86;21200;-61
2020/12/14 10:34:54;;;;;;;66.82;38.73;;;;;;;3.04;91.27;99187.20;1651845;85;21169;-61
2020/12/14 10:37:23;;;;;;;80.97;43.92;;;;;;;2.98;90.94;99179.30;1665705;86;21332;-62
2020/12/14 10:39:51;;;;;;;74.37;41.28;;;;;;;2.93;90.76;99177.80;1666142;85;21295;-61
2020/12/14 10:42:19;;;;;;;79.70;43.35;;;;;;;2.89;91.13;99188.66;1663337;85;21197;-61
2020/12/14 10:44:46;;;;;;;77.78;41.35;;;;;;;2.90;91.91;99193.34;1666646;85;21292;-62
2020/12/14 10:47:14;;;;;;;77.00;42.35;;;;;;;2.97;92.50;99182.22;1666670;86;21157;-61
2020/12/14 10:49:42;;;;;;;88.52;46.65;;;;;;;3.08;93.23;99185.27;1666707;85;21154;-61
2020/12/14 10:52:11;;;;;;;91.87;50.48;;;;;;;3.18;93.36;99187.41;1666600;85;21214;-62
2020/12/14 10:54:42;;;;;;;86.28;47.50;;;;;;;3.20;93.03;99187.46;1666853;85;21209;-61
2020/12/14 10:57:10;;;;;;;79.60;43.17;;;;;;;3.22;92.98;99187.13;1663200;85;21339;-62
2020/12/14 10:59:38;;;;;;;67.42;41.28;;;;;;;3.22;93.09;99181.62;1667115;85;21311;-61
2020/12/14 11:02:06;;;;;;;70.87;41.08;;;;;;;3.22;93.01;99188.00;1667403;85;21186;-61
2020/12/14 11:04:34;;;;;;;69.25;40.35;;;;;;;3.22;93.02;99177.80;1667282;85;21304;-61
2020/12/14 11:07:01;;;;;;;66.02;34.27;;;;;;;3.26;93.22;99183.52;1667231;85;21162;-61
2020/12/14 11:09:29;;;;;;;64.42;36.00;;;;;;;3.21;92.45;99187.55;1667218;85;21169;-60
2020/12/14 11:11:57;;;;;;;64.95;36.25;;;;;;;3.16;91.84;99191.57;1677370;83;21178;-67
2020/12/14 11:14:25;;;;;;;61.53;34.78;;;;;;;3.11;91.55;99185.40;1688706;83;21599;-69
2020/12/14 11:16:53;;;;;;;61.33;35.08;;;;;;;3.03;90.80;99188.02;1688063;83;21606;-68
2020/12/14 11:19:20;;;;;;;65.25;35.68;;;;;;;2.90;90.61;99189.14;1688021;83;21179;-68
2020/12/14 11:21:53;;;;;;;69.17;36.55;;;;;;;2.81;90.65;99194.69;1688823;83;21591;-68
2020/12/14 11:24:22;;;;;;;65.92;36.68;;;;;;;2.72;90.77;99196.84;1688453;83;21162;-70
2020/12/14 11:26:50;;;;;;;64.35;36.68;;;;;;;2.64;90.83;99191.77;1687962;83;21227;-68
2020/12/14 11:29:18;;;;;;;71.57;39.00;;;;;;;2.59;90.77;99189.41;1688358;83;21183;-69
2020/12/14 11:31:46;;;;;;;72.60;38.83;;;;;;;2.54;90.84;99193.01;1688685;84;21576;-68
2020/12/14 11:34:14;;;;;;;74.85;41.80;;;;;;;2.51;90.93;99195.42;1688526;83;21239;-68
2020/12/14 11:36:41;;;;;;;87.12;46.70;;;;;;;2.49;90.93;99199.97;1688847;85;21197;-70
2020/12/14 11:39:12;;;;;;;87.65;44.98;;;;;;;2.45;91.37;99199.38;1688781;83;21171;-68